sensor_id;sensor_type;location;lat;lon;timestamp;P1;durP1;ratioP1;P2;durP2;ratioP2
76433;SDS011;65265;53.200;6.080;2023-08-01T00:03:41;4.78;;;2.25;;
76433;SDS011;65265;53.200;6.080;2023-08-01T00:08:33;5.90;;;1.60;;
76433;SDS011;65265;53.200;6.080;2023-08-01T00:13:24;5.57;;;1.77;;
76433;SDS011;65265;53.200;6.080;2023-08-01T00:18:16;6.57;;;2.50;;
76433;SDS011;65265;53.200;6.080;2023-08-01T00:23:09;8.23;;;1.95;;
76433;SDS011;65265;53.200;6.080;2023-08-01T00:28:01;4.55;;;1.90;;
76433;SDS011;65265;53.200;6.080;2023-08-01T00:32:52;8.85;;;1.63;;
76433;SDS011;65265;53.200;6.080;2023-08-01T00:37:44;8.05;;;2.30;;
76433;SDS011;65265;53.200;6.080;2023-08-01T00:42:37;7.22;;;1.35;;
76433;SDS011;65265;53.200;6.080;2023-08-01T00:47:28;10.25;;;2.75;;
76433;SDS011;65265;53.200;6.080;2023-08-01T00:52:20;4.57;;;2.05;;
76433;SDS011;65265;53.200;6.080;2023-08-01T00:57:13;8.75;;;2.53;;
76433;SDS011;65265;53.200;6.080;2023-08-01T01:02:06;5.10;;;1.77;;
76433;SDS011;65265;53.200;6.080;2023-08-01T01:06:59;3.53;;;1.50;;
76433;SDS011;65265;53.200;6.080;2023-08-01T01:11:53;4.18;;;1.35;;
76433;SDS011;65265;53.200;6.080;2023-08-01T01:16:44;3.20;;;1.27;;
76433;SDS011;65265;53.200;6.080;2023-08-01T01:21:38;7.93;;;1.90;;
76433;SDS011;65265;53.200;6.080;2023-08-01T01:26:31;5.05;;;1.40;;
76433;SDS011;65265;53.200;6.080;2023-08-01T01:31:23;4.50;;;1.35;;
76433;SDS011;65265;53.200;6.080;2023-08-01T01:36:15;4.95;;;1.30;;
76433;SDS011;65265;53.200;6.080;2023-08-01T01:41:08;5.18;;;1.20;;
76433;SDS011;65265;53.200;6.080;2023-08-01T01:46:01;3.47;;;1.30;;
76433;SDS011;65265;53.200;6.080;2023-08-01T01:50:52;5.68;;;1.30;;
76433;SDS011;65265;53.200;6.080;2023-08-01T01:55:44;4.88;;;1.48;;
76433;SDS011;65265;53.200;6.080;2023-08-01T02:00:36;4.38;;;1.30;;
76433;SDS011;65265;53.200;6.080;2023-08-01T02:05:28;4.35;;;1.27;;
76433;SDS011;65265;53.200;6.080;2023-08-01T02:10:19;4.60;;;1.73;;
76433;SDS011;65265;53.200;6.080;2023-08-01T02:15:11;5.72;;;1.63;;
76433;SDS011;65265;53.200;6.080;2023-08-01T02:20:05;3.90;;;1.40;;
76433;SDS011;65265;53.200;6.080;2023-08-01T02:24:57;3.30;;;1.52;;
76433;SDS011;65265;53.200;6.080;2023-08-01T02:29:48;5.68;;;2.47;;
76433;SDS011;65265;53.200;6.080;2023-08-01T02:34:40;5.18;;;2.00;;
76433;SDS011;65265;53.200;6.080;2023-08-01T02:39:34;6.03;;;2.65;;
76433;SDS011;65265;53.200;6.080;2023-08-01T02:44:26;5.50;;;1.88;;
76433;SDS011;65265;53.200;6.080;2023-08-01T02:49:17;6.43;;;2.63;;
76433;SDS011;65265;53.200;6.080;2023-08-01T02:54:09;10.38;;;2.45;;
76433;SDS011;65265;53.200;6.080;2023-08-01T02:59:02;7.38;;;2.30;;
76433;SDS011;65265;53.200;6.080;2023-08-01T03:03:55;7.28;;;2.35;;
76433;SDS011;65265;53.200;6.080;2023-08-01T03:08:46;6.63;;;2.95;;
76433;SDS011;65265;53.200;6.080;2023-08-01T03:13:37;7.78;;;2.35;;
76433;SDS011;65265;53.200;6.080;2023-08-01T03:18:30;6.40;;;1.27;;
76433;SDS011;65265;53.200;6.080;2023-08-01T03:23:22;3.67;;;0.70;;
76433;SDS011;65265;53.200;6.080;2023-08-01T03:28:14;3.03;;;0.70;;
76433;SDS011;65265;53.200;6.080;2023-08-01T03:33:05;3.22;;;0.73;;
76433;SDS011;65265;53.200;6.080;2023-08-01T03:37:58;6.85;;;0.80;;
76433;SDS011;65265;53.200;6.080;2023-08-01T03:42:49;2.92;;;0.93;;
76433;SDS011;65265;53.200;6.080;2023-08-01T03:47:41;6.05;;;0.98;;
76433;SDS011;65265;53.200;6.080;2023-08-01T03:52:32;5.45;;;0.60;;
76433;SDS011;65265;53.200;6.080;2023-08-01T03:57:25;5.55;;;0.75;;
76433;SDS011;65265;53.200;6.080;2023-08-01T04:02:17;3.55;;;0.75;;
76433;SDS011;65265;53.200;6.080;2023-08-01T04:07:08;3.58;;;0.40;;
76433;SDS011;65265;53.200;6.080;2023-08-01T04:12:00;3.47;;;0.50;;
76433;SDS011;65265;53.200;6.080;2023-08-01T04:16:53;1.45;;;0.38;;
76433;SDS011;65265;53.200;6.080;2023-08-01T04:21:44;2.13;;;0.40;;
76433;SDS011;65265;53.200;6.080;2023-08-01T04:26:36;3.20;;;1.35;;
76433;SDS011;65265;53.200;6.080;2023-08-01T04:31:27;5.38;;;0.50;;
76433;SDS011;65265;53.200;6.080;2023-08-01T04:36:20;1.92;;;0.30;;
76433;SDS011;65265;53.200;6.080;2023-08-01T04:41:12;2.45;;;0.65;;
76433;SDS011;65265;53.200;6.080;2023-08-01T04:46:04;6.80;;;1.33;;
76433;SDS011;65265;53.200;6.080;2023-08-01T04:50:55;4.90;;;1.17;;
76433;SDS011;65265;53.200;6.080;2023-08-01T04:55:48;4.85;;;1.38;;
76433;SDS011;65265;53.200;6.080;2023-08-01T05:00:41;3.05;;;1.00;;
76433;SDS011;65265;53.200;6.080;2023-08-01T05:05:32;2.80;;;1.10;;
76433;SDS011;65265;53.200;6.080;2023-08-01T05:10:24;3.65;;;0.95;;
76433;SDS011;65265;53.200;6.080;2023-08-01T05:15:17;3.90;;;0.93;;
76433;SDS011;65265;53.200;6.080;2023-08-01T05:20:08;3.70;;;1.52;;
76433;SDS011;65265;53.200;6.080;2023-08-01T05:29:54;3.47;;;1.00;;
76433;SDS011;65265;53.200;6.080;2023-08-01T05:34:48;5.18;;;1.33;;
76433;SDS011;65265;53.200;6.080;2023-08-01T05:39:39;4.70;;;1.10;;
76433;SDS011;65265;53.200;6.080;2023-08-01T05:44:30;4.72;;;1.00;;
76433;SDS011;65265;53.200;6.080;2023-08-01T05:49:22;4.30;;;0.65;;
76433;SDS011;65265;53.200;6.080;2023-08-01T05:54:15;3.28;;;0.50;;
76433;SDS011;65265;53.200;6.080;2023-08-01T05:59:06;2.75;;;0.10;;
76433;SDS011;65265;53.200;6.080;2023-08-01T06:03:58;3.15;;;0.30;;
76433;SDS011;65265;53.200;6.080;2023-08-01T06:08:49;3.50;;;0.15;;
76433;SDS011;65265;53.200;6.080;2023-08-01T06:13:43;3.00;;;0.22;;
76433;SDS011;65265;53.200;6.080;2023-08-01T06:18:34;1.77;;;0.35;;
76433;SDS011;65265;53.200;6.080;2023-08-01T06:23:26;3.25;;;0.28;;
76433;SDS011;65265;53.200;6.080;2023-08-01T06:28:17;3.38;;;0.25;;
76433;SDS011;65265;53.200;6.080;2023-08-01T06:33:10;3.60;;;0.50;;
76433;SDS011;65265;53.200;6.080;2023-08-01T06:38:02;5.20;;;0.30;;
76433;SDS011;65265;53.200;6.080;2023-08-01T06:42:53;4.00;;;0.20;;
76433;SDS011;65265;53.200;6.080;2023-08-01T06:47:45;1.85;;;0.40;;
76433;SDS011;65265;53.200;6.080;2023-08-01T06:52:38;2.28;;;0.35;;
76433;SDS011;65265;53.200;6.080;2023-08-01T06:57:29;3.42;;;0.90;;
76433;SDS011;65265;53.200;6.080;2023-08-01T07:02:21;4.35;;;0.20;;
76433;SDS011;65265;53.200;6.080;2023-08-01T07:07:13;2.15;;;0.43;;
76433;SDS011;65265;53.200;6.080;2023-08-01T07:12:07;7.55;;;0.90;;
76433;SDS011;65265;53.200;6.080;2023-08-01T07:16:59;2.45;;;0.68;;
76433;SDS011;65265;53.200;6.080;2023-08-01T07:21:50;2.83;;;0.15;;
76433;SDS011;65265;53.200;6.080;2023-08-01T07:26:42;3.28;;;0.15;;
76433;SDS011;65265;53.200;6.080;2023-08-01T07:31:34;3.88;;;0.60;;
76433;SDS011;65265;53.200;6.080;2023-08-01T07:36:26;10.32;;;0.98;;
76433;SDS011;65265;53.200;6.080;2023-08-01T07:41:18;7.97;;;0.50;;
76433;SDS011;65265;53.200;6.080;2023-08-01T07:46:09;4.38;;;0.52;;
76433;SDS011;65265;53.200;6.080;2023-08-01T07:55:55;6.03;;;0.50;;
76433;SDS011;65265;53.200;6.080;2023-08-01T08:00:47;5.60;;;0.65;;
76433;SDS011;65265;53.200;6.080;2023-08-01T08:05:39;9.32;;;1.05;;
76433;SDS011;65265;53.200;6.080;2023-08-01T08:10:32;4.80;;;0.60;;
76433;SDS011;65265;53.200;6.080;2023-08-01T08:15:23;2.90;;;0.45;;
76433;SDS011;65265;53.200;6.080;2023-08-01T08:20:16;5.10;;;0.95;;
76433;SDS011;65265;53.200;6.080;2023-08-01T08:25:07;3.05;;;1.25;;
76433;SDS011;65265;53.200;6.080;2023-08-01T08:30:00;4.88;;;0.63;;
76433;SDS011;65265;53.200;6.080;2023-08-01T08:34:52;7.03;;;1.08;;
76433;SDS011;65265;53.200;6.080;2023-08-01T08:39:43;5.05;;;0.50;;
76433;SDS011;65265;53.200;6.080;2023-08-01T08:44:35;3.05;;;0.70;;
76433;SDS011;65265;53.200;6.080;2023-08-01T08:49:36;5.38;;;0.55;;
76433;SDS011;65265;53.200;6.080;2023-08-01T08:54:28;3.13;;;0.32;;
76433;SDS011;65265;53.200;6.080;2023-08-01T08:59:21;4.55;;;0.43;;
76433;SDS011;65265;53.200;6.080;2023-08-01T09:04:13;3.42;;;0.10;;
76433;SDS011;65265;53.200;6.080;2023-08-01T09:09:09;3.80;;;0.30;;
76433;SDS011;65265;53.200;6.080;2023-08-01T09:14:01;3.05;;;0.80;;
76433;SDS011;65265;53.200;6.080;2023-08-01T09:18:52;6.38;;;0.52;;
76433;SDS011;65265;53.200;6.080;2023-08-01T09:23:44;3.47;;;0.25;;
76433;SDS011;65265;53.200;6.080;2023-08-01T09:28:37;2.00;;;0.20;;
76433;SDS011;65265;53.200;6.080;2023-08-01T09:33:37;1.80;;;0.28;;
76433;SDS011;65265;53.200;6.080;2023-08-01T09:38:33;5.10;;;0.20;;
76433;SDS011;65265;53.200;6.080;2023-08-01T09:43:25;2.63;;;0.30;;
76433;SDS011;65265;53.200;6.080;2023-08-01T09:48:26;4.80;;;0.95;;
76433;SDS011;65265;53.200;6.080;2023-08-01T09:53:19;4.53;;;0.82;;
76433;SDS011;65265;53.200;6.080;2023-08-01T09:58:10;6.57;;;0.57;;
76433;SDS011;65265;53.200;6.080;2023-08-01T10:03:04;3.25;;;0.43;;
76433;SDS011;65265;53.200;6.080;2023-08-01T10:07:58;4.15;;;0.20;;
76433;SDS011;65265;53.200;6.080;2023-08-01T10:12:50;4.53;;;0.25;;
76433;SDS011;65265;53.200;6.080;2023-08-01T10:17:43;3.70;;;0.25;;
76433;SDS011;65265;53.200;6.080;2023-08-01T10:22:34;2.78;;;0.57;;
76433;SDS011;65265;53.200;6.080;2023-08-01T10:32:19;2.72;;;0.43;;
76433;SDS011;65265;53.200;6.080;2023-08-01T10:37:11;5.50;;;0.35;;
76433;SDS011;65265;53.200;6.080;2023-08-01T10:42:03;7.05;;;0.28;;
76433;SDS011;65265;53.200;6.080;2023-08-01T10:46:58;1.88;;;0.15;;
76433;SDS011;65265;53.200;6.080;2023-08-01T10:51:51;6.25;;;0.40;;
76433;SDS011;65265;53.200;6.080;2023-08-01T10:56:44;4.47;;;0.80;;
76433;SDS011;65265;53.200;6.080;2023-08-01T11:01:42;2.80;;;0.10;;
76433;SDS011;65265;53.200;6.080;2023-08-01T11:06:43;3.78;;;0.22;;
76433;SDS011;65265;53.200;6.080;2023-08-01T11:11:35;3.85;;;0.13;;
76433;SDS011;65265;53.200;6.080;2023-08-01T11:16:27;5.43;;;0.28;;
76433;SDS011;65265;53.200;6.080;2023-08-01T11:21:25;3.13;;;0.63;;
76433;SDS011;65265;53.200;6.080;2023-08-01T11:26:19;1.30;;;0.10;;
76433;SDS011;65265;53.200;6.080;2023-08-01T11:31:11;3.08;;;0.10;;
76433;SDS011;65265;53.200;6.080;2023-08-01T11:40:55;4.88;;;0.85;;
76433;SDS011;65265;53.200;6.080;2023-08-01T11:45:49;3.28;;;0.38;;
76433;SDS011;65265;53.200;6.080;2023-08-01T11:50:42;4.95;;;1.15;;
76433;SDS011;65265;53.200;6.080;2023-08-01T11:55:34;1.27;;;0.47;;
76433;SDS011;65265;53.200;6.080;2023-08-01T12:00:27;3.92;;;0.50;;
76433;SDS011;65265;53.200;6.080;2023-08-01T12:05:24;4.63;;;0.60;;
76433;SDS011;65265;53.200;6.080;2023-08-01T12:10:16;5.65;;;0.80;;
76433;SDS011;65265;53.200;6.080;2023-08-01T12:15:08;3.92;;;0.68;;
76433;SDS011;65265;53.200;6.080;2023-08-01T12:20:00;3.42;;;0.70;;
76433;SDS011;65265;53.200;6.080;2023-08-01T12:24:53;3.28;;;0.43;;
76433;SDS011;65265;53.200;6.080;2023-08-01T12:29:44;3.80;;;0.40;;
76433;SDS011;65265;53.200;6.080;2023-08-01T12:34:35;2.42;;;0.20;;
76433;SDS011;65265;53.200;6.080;2023-08-01T12:39:27;4.45;;;0.52;;
76433;SDS011;65265;53.200;6.080;2023-08-01T12:44:20;4.18;;;1.10;;
76433;SDS011;65265;53.200;6.080;2023-08-01T12:49:12;2.28;;;0.70;;
76433;SDS011;65265;53.200;6.080;2023-08-01T12:54:03;7.15;;;0.43;;
76433;SDS011;65265;53.200;6.080;2023-08-01T12:58:55;5.75;;;0.52;;
76433;SDS011;65265;53.200;6.080;2023-08-01T13:03:47;5.57;;;1.20;;
76433;SDS011;65265;53.200;6.080;2023-08-01T13:08:39;3.80;;;0.50;;
76433;SDS011;65265;53.200;6.080;2023-08-01T13:13:30;3.97;;;0.60;;
76433;SDS011;65265;53.200;6.080;2023-08-01T13:18:22;4.25;;;0.40;;
76433;SDS011;65265;53.200;6.080;2023-08-01T13:23:15;2.92;;;0.17;;
76433;SDS011;65265;53.200;6.080;2023-08-01T13:28:07;6.70;;;0.32;;
76433;SDS011;65265;53.200;6.080;2023-08-01T13:32:59;7.40;;;0.60;;
76433;SDS011;65265;53.200;6.080;2023-08-01T13:37:51;4.28;;;0.47;;
76433;SDS011;65265;53.200;6.080;2023-08-01T13:42:44;4.05;;;0.10;;
76433;SDS011;65265;53.200;6.080;2023-08-01T13:47:35;3.33;;;0.15;;
76433;SDS011;65265;53.200;6.080;2023-08-01T13:52:26;4.70;;;0.28;;
76433;SDS011;65265;53.200;6.080;2023-08-01T13:57:18;3.55;;;0.30;;
76433;SDS011;65265;53.200;6.080;2023-08-01T14:02:11;6.47;;;0.55;;
76433;SDS011;65265;53.200;6.080;2023-08-01T14:07:03;3.38;;;0.52;;
76433;SDS011;65265;53.200;6.080;2023-08-01T14:11:54;6.82;;;0.73;;
76433;SDS011;65265;53.200;6.080;2023-08-01T14:16:46;5.32;;;0.90;;
76433;SDS011;65265;53.200;6.080;2023-08-01T14:21:39;3.90;;;0.63;;
76433;SDS011;65265;53.200;6.080;2023-08-01T14:26:31;0.80;;;0.10;;
76433;SDS011;65265;53.200;6.080;2023-08-01T14:31:22;4.38;;;0.25;;
76433;SDS011;65265;53.200;6.080;2023-08-01T14:36:14;2.63;;;0.38;;
76433;SDS011;65265;53.200;6.080;2023-08-01T14:41:06;2.70;;;0.43;;
76433;SDS011;65265;53.200;6.080;2023-08-01T14:45:59;4.63;;;0.52;;
76433;SDS011;65265;53.200;6.080;2023-08-01T14:50:51;1.00;;;0.10;;
76433;SDS011;65265;53.200;6.080;2023-08-01T14:55:42;6.03;;;0.52;;
76433;SDS011;65265;53.200;6.080;2023-08-01T15:00:35;5.13;;;0.43;;
76433;SDS011;65265;53.200;6.080;2023-08-01T15:05:27;1.75;;;0.73;;
76433;SDS011;65265;53.200;6.080;2023-08-01T15:10:18;7.07;;;0.45;;
76433;SDS011;65265;53.200;6.080;2023-08-01T15:15:10;1.88;;;0.20;;
76433;SDS011;65265;53.200;6.080;2023-08-01T15:20:04;4.28;;;0.60;;
76433;SDS011;65265;53.200;6.080;2023-08-01T15:24:56;2.90;;;0.00;;
76433;SDS011;65265;53.200;6.080;2023-08-01T15:29:48;3.65;;;0.38;;
76433;SDS011;65265;53.200;6.080;2023-08-01T15:34:39;3.38;;;0.40;;
76433;SDS011;65265;53.200;6.080;2023-08-01T15:39:32;2.22;;;0.40;;
76433;SDS011;65265;53.200;6.080;2023-08-01T15:44:24;2.17;;;0.10;;
76433;SDS011;65265;53.200;6.080;2023-08-01T15:49:15;3.95;;;0.30;;
76433;SDS011;65265;53.200;6.080;2023-08-01T15:54:07;5.90;;;0.52;;
76433;SDS011;65265;53.200;6.080;2023-08-01T15:59:00;3.40;;;0.30;;
76433;SDS011;65265;53.200;6.080;2023-08-01T16:03:51;2.33;;;0.20;;
76433;SDS011;65265;53.200;6.080;2023-08-01T16:08:42;1.88;;;0.30;;
76433;SDS011;65265;53.200;6.080;2023-08-01T16:13:34;2.30;;;0.03;;
76433;SDS011;65265;53.200;6.080;2023-08-01T16:18:27;2.85;;;0.20;;
76433;SDS011;65265;53.200;6.080;2023-08-01T16:23:18;1.92;;;0.00;;
76433;SDS011;65265;53.200;6.080;2023-08-01T16:28:11;1.98;;;0.00;;
76433;SDS011;65265;53.200;6.080;2023-08-01T16:33:03;2.97;;;0.20;;
76433;SDS011;65265;53.200;6.080;2023-08-01T16:37:56;2.28;;;0.10;;
76433;SDS011;65265;53.200;6.080;2023-08-01T16:42:48;1.77;;;0.10;;
76433;SDS011;65265;53.200;6.080;2023-08-01T16:47:39;3.22;;;0.30;;
76433;SDS011;65265;53.200;6.080;2023-08-01T16:52:31;2.20;;;0.70;;
76433;SDS011;65265;53.200;6.080;2023-08-01T16:57:24;2.78;;;0.30;;
76433;SDS011;65265;53.200;6.080;2023-08-01T17:02:16;5.68;;;0.55;;
76433;SDS011;65265;53.200;6.080;2023-08-01T17:07:07;2.50;;;0.55;;
76433;SDS011;65265;53.200;6.080;2023-08-01T17:11:59;4.18;;;0.85;;
76433;SDS011;65265;53.200;6.080;2023-08-01T17:16:52;6.35;;;0.50;;
76433;SDS011;65265;53.200;6.080;2023-08-01T17:21:44;3.67;;;0.30;;
76433;SDS011;65265;53.200;6.080;2023-08-01T17:26:36;7.13;;;0.98;;
76433;SDS011;65265;53.200;6.080;2023-08-01T17:31:27;4.63;;;0.60;;
76433;SDS011;65265;53.200;6.080;2023-08-01T17:36:23;6.97;;;0.35;;
76433;SDS011;65265;53.200;6.080;2023-08-01T17:41:18;6.85;;;0.85;;
76433;SDS011;65265;53.200;6.080;2023-08-01T17:46:10;4.13;;;0.45;;
76433;SDS011;65265;53.200;6.080;2023-08-01T17:51:01;3.90;;;0.30;;
76433;SDS011;65265;53.200;6.080;2023-08-01T17:55:54;3.45;;;0.32;;
76433;SDS011;65265;53.200;6.080;2023-08-01T18:00:46;4.20;;;0.35;;
76433;SDS011;65265;53.200;6.080;2023-08-01T18:05:37;3.55;;;0.52;;
76433;SDS011;65265;53.200;6.080;2023-08-01T18:15:26;5.82;;;0.47;;
76433;SDS011;65265;53.200;6.080;2023-08-01T18:20:18;5.70;;;0.50;;
76433;SDS011;65265;53.200;6.080;2023-08-01T18:25:09;2.88;;;0.50;;
76433;SDS011;65265;53.200;6.080;2023-08-01T18:30:01;4.30;;;0.98;;
76433;SDS011;65265;53.200;6.080;2023-08-01T18:34:54;7.95;;;1.23;;
76433;SDS011;65265;53.200;6.080;2023-08-01T18:39:51;3.17;;;0.50;;
76433;SDS011;65265;53.200;6.080;2023-08-01T18:44:43;2.53;;;0.63;;
76433;SDS011;65265;53.200;6.080;2023-08-01T18:49:35;4.00;;;0.80;;
76433;SDS011;65265;53.200;6.080;2023-08-01T18:54:28;8.20;;;1.92;;
76433;SDS011;65265;53.200;6.080;2023-08-01T18:59:19;4.78;;;0.90;;
76433;SDS011;65265;53.200;6.080;2023-08-01T19:04:11;6.18;;;0.30;;
76433;SDS011;65265;53.200;6.080;2023-08-01T19:09:02;2.97;;;0.32;;
76433;SDS011;65265;53.200;6.080;2023-08-01T19:13:55;6.38;;;0.50;;
76433;SDS011;65265;53.200;6.080;2023-08-01T19:18:48;1.63;;;0.13;;
76433;SDS011;65265;53.200;6.080;2023-08-01T19:23:40;2.67;;;0.43;;
76433;SDS011;65265;53.200;6.080;2023-08-01T19:28:32;1.10;;;0.10;;
76433;SDS011;65265;53.200;6.080;2023-08-01T19:33:25;1.38;;;0.20;;
76433;SDS011;65265;53.200;6.080;2023-08-01T19:38:17;5.13;;;0.17;;
76433;SDS011;65265;53.200;6.080;2023-08-01T19:43:08;3.90;;;0.80;;
76433;SDS011;65265;53.200;6.080;2023-08-01T19:48:00;3.95;;;0.15;;
76433;SDS011;65265;53.200;6.080;2023-08-01T19:52:55;3.80;;;0.10;;
76433;SDS011;65265;53.200;6.080;2023-08-01T19:57:46;1.02;;;0.10;;
76433;SDS011;65265;53.200;6.080;2023-08-01T20:02:38;1.73;;;0.10;;
76433;SDS011;65265;53.200;6.080;2023-08-01T20:07:29;3.20;;;0.20;;
76433;SDS011;65265;53.200;6.080;2023-08-01T20:12:24;4.38;;;0.75;;
76433;SDS011;65265;53.200;6.080;2023-08-01T20:17:15;0.95;;;0.15;;
76433;SDS011;65265;53.200;6.080;2023-08-01T20:22:07;3.35;;;0.68;;
76433;SDS011;65265;53.200;6.080;2023-08-01T20:26:58;1.15;;;0.30;;
76433;SDS011;65265;53.200;6.080;2023-08-01T20:31:51;0.82;;;0.17;;
76433;SDS011;65265;53.200;6.080;2023-08-01T20:36:43;2.58;;;0.10;;
76433;SDS011;65265;53.200;6.080;2023-08-01T20:41:34;2.55;;;0.10;;
76433;SDS011;65265;53.200;6.080;2023-08-01T20:46:26;2.35;;;0.20;;
76433;SDS011;65265;53.200;6.080;2023-08-01T20:51:21;4.63;;;0.30;;
76433;SDS011;65265;53.200;6.080;2023-08-01T20:56:12;3.90;;;0.30;;
76433;SDS011;65265;53.200;6.080;2023-08-01T21:01:04;2.58;;;0.35;;
76433;SDS011;65265;53.200;6.080;2023-08-01T21:05:55;1.98;;;0.17;;
76433;SDS011;65265;53.200;6.080;2023-08-01T21:10:48;2.63;;;0.45;;
76433;SDS011;65265;53.200;6.080;2023-08-01T21:15:40;0.80;;;0.40;;
76433;SDS011;65265;53.200;6.080;2023-08-01T21:20:31;1.73;;;0.43;;
76433;SDS011;65265;53.200;6.080;2023-08-01T21:25:23;4.88;;;0.85;;
76433;SDS011;65265;53.200;6.080;2023-08-01T21:30:16;2.45;;;0.20;;
76433;SDS011;65265;53.200;6.080;2023-08-01T21:35:08;0.73;;;0.25;;
76433;SDS011;65265;53.200;6.080;2023-08-01T21:40:00;3.22;;;0.63;;
76433;SDS011;65265;53.200;6.080;2023-08-01T21:44:52;1.23;;;0.20;;
76433;SDS011;65265;53.200;6.080;2023-08-01T21:49:45;1.20;;;0.20;;
76433;SDS011;65265;53.200;6.080;2023-08-01T21:54:36;3.08;;;0.35;;
76433;SDS011;65265;53.200;6.080;2023-08-01T21:59:28;2.03;;;0.35;;
76433;SDS011;65265;53.200;6.080;2023-08-01T22:04:19;2.53;;;0.28;;
76433;SDS011;65265;53.200;6.080;2023-08-01T22:09:12;1.05;;;0.22;;
76433;SDS011;65265;53.200;6.080;2023-08-01T22:14:03;2.50;;;0.22;;
76433;SDS011;65265;53.200;6.080;2023-08-01T22:18:55;1.38;;;0.65;;
76433;SDS011;65265;53.200;6.080;2023-08-01T22:23:47;1.65;;;0.35;;
76433;SDS011;65265;53.200;6.080;2023-08-01T22:28:40;1.67;;;0.38;;
76433;SDS011;65265;53.200;6.080;2023-08-01T22:33:31;1.25;;;0.82;;
76433;SDS011;65265;53.200;6.080;2023-08-01T22:38:23;2.30;;;0.20;;
76433;SDS011;65265;53.200;6.080;2023-08-01T22:43:14;2.85;;;0.60;;
76433;SDS011;65265;53.200;6.080;2023-08-01T22:48:07;0.90;;;0.10;;
76433;SDS011;65265;53.200;6.080;2023-08-01T22:52:59;1.17;;;0.20;;
76433;SDS011;65265;53.200;6.080;2023-08-01T22:57:50;1.45;;;0.50;;
76433;SDS011;65265;53.200;6.080;2023-08-01T23:02:42;1.30;;;0.43;;
76433;SDS011;65265;53.200;6.080;2023-08-01T23:07:35;3.05;;;0.50;;
76433;SDS011;65265;53.200;6.080;2023-08-01T23:12:27;2.78;;;0.43;;
76433;SDS011;65265;53.200;6.080;2023-08-01T23:17:18;5.28;;;0.50;;
76433;SDS011;65265;53.200;6.080;2023-08-01T23:22:10;1.02;;;0.50;;
76433;SDS011;65265;53.200;6.080;2023-08-01T23:27:03;2.38;;;0.45;;
76433;SDS011;65265;53.200;6.080;2023-08-01T23:31:55;1.50;;;0.20;;
76433;SDS011;65265;53.200;6.080;2023-08-01T23:36:46;3.08;;;0.30;;
76433;SDS011;65265;53.200;6.080;2023-08-01T23:41:38;1.25;;;0.20;;
76433;SDS011;65265;53.200;6.080;2023-08-01T23:46:31;1.55;;;0.13;;
76433;SDS011;65265;53.200;6.080;2023-08-01T23:51:22;1.58;;;0.32;;
76433;SDS011;65265;53.200;6.080;2023-08-01T23:56:13;1.80;;;0.20;;
